sensor_id;sensor_type;location;lat;lon;timestamp;P1;durP1;ratioP1;P2;durP2;ratioP2
26774;SDS011;14362;51.902;7.626;2022-07-03T00:01:43;3.70;;;1.70;;
26774;SDS011;14362;51.902;7.626;2022-07-03T00:05:44;4.57;;;1.70;;
26774;SDS011;14362;51.902;7.626;2022-07-03T00:09:46;4.05;;;1.60;;
26774;SDS011;14362;51.902;7.626;2022-07-03T00:13:47;2.83;;;1.75;;
26774;SDS011;14362;51.902;7.626;2022-07-03T00:17:50;2.88;;;1.63;;
26774;SDS011;14362;51.902;7.626;2022-07-03T00:21:52;5.72;;;1.50;;
26774;SDS011;14362;51.902;7.626;2022-07-03T00:25:57;2.05;;;1.70;;
26774;SDS011;14362;51.902;7.626;2022-07-03T00:30:02;3.45;;;1.52;;
26774;SDS011;14362;51.902;7.626;2022-07-03T00:34:06;5.43;;;1.70;;
26774;SDS011;14362;51.902;7.626;2022-07-03T00:38:10;2.55;;;1.85;;
26774;SDS011;14362;51.902;7.626;2022-07-03T00:42:12;2.88;;;1.63;;
26774;SDS011;14362;51.902;7.626;2022-07-03T00:46:14;3.50;;;2.10;;
26774;SDS011;14362;51.902;7.626;2022-07-03T00:50:19;2.75;;;2.10;;
26774;SDS011;14362;51.902;7.626;2022-07-03T00:54:25;2.17;;;1.80;;
26774;SDS011;14362;51.902;7.626;2022-07-03T00:58:27;3.13;;;1.90;;
26774;SDS011;14362;51.902;7.626;2022-07-03T01:02:33;3.35;;;2.20;;
26774;SDS011;14362;51.902;7.626;2022-07-03T01:06:45;2.42;;;2.05;;
26774;SDS011;14362;51.902;7.626;2022-07-03T01:10:54;4.63;;;2.65;;
26774;SDS011;14362;51.902;7.626;2022-07-03T01:15:05;4.10;;;2.47;;
26774;SDS011;14362;51.902;7.626;2022-07-03T01:19:17;3.03;;;2.15;;
26774;SDS011;14362;51.902;7.626;2022-07-03T01:23:41;3.33;;;2.80;;
26774;SDS011;14362;51.902;7.626;2022-07-03T01:28:06;3.20;;;2.70;;
26774;SDS011;14362;51.902;7.626;2022-07-03T01:32:10;3.10;;;2.75;;
26774;SDS011;14362;51.902;7.626;2022-07-03T01:36:15;3.33;;;2.97;;
26774;SDS011;14362;51.902;7.626;2022-07-03T01:40:18;4.32;;;2.80;;
26774;SDS011;14362;51.902;7.626;2022-07-03T01:44:24;4.13;;;3.20;;
26774;SDS011;14362;51.902;7.626;2022-07-03T01:48:28;4.40;;;3.33;;
26774;SDS011;14362;51.902;7.626;2022-07-03T01:52:31;3.70;;;3.20;;
26774;SDS011;14362;51.902;7.626;2022-07-03T01:56:32;4.82;;;3.10;;
26774;SDS011;14362;51.902;7.626;2022-07-03T02:00:40;4.28;;;3.65;;
26774;SDS011;14362;51.902;7.626;2022-07-03T02:04:50;5.45;;;3.55;;
26774;SDS011;14362;51.902;7.626;2022-07-03T02:09:01;3.95;;;3.08;;
26774;SDS011;14362;51.902;7.626;2022-07-03T02:13:06;4.75;;;3.30;;
26774;SDS011;14362;51.902;7.626;2022-07-03T02:17:13;5.13;;;3.00;;
26774;SDS011;14362;51.902;7.626;2022-07-03T02:21:19;9.65;;;3.72;;
26774;SDS011;14362;51.902;7.626;2022-07-03T02:25:21;4.55;;;3.40;;
26774;SDS011;14362;51.902;7.626;2022-07-03T02:29:26;4.28;;;3.17;;
26774;SDS011;14362;51.902;7.626;2022-07-03T02:33:34;11.23;;;3.50;;
26774;SDS011;14362;51.902;7.626;2022-07-03T02:37:40;5.38;;;3.63;;
26774;SDS011;14362;51.902;7.626;2022-07-03T02:41:49;4.95;;;3.80;;
26774;SDS011;14362;51.902;7.626;2022-07-03T02:45:57;7.47;;;3.90;;
26774;SDS011;14362;51.902;7.626;2022-07-03T02:50:27;4.85;;;3.78;;
26774;SDS011;14362;51.902;7.626;2022-07-03T02:54:33;5.30;;;3.63;;
26774;SDS011;14362;51.902;7.626;2022-07-03T02:58:44;8.15;;;3.88;;
26774;SDS011;14362;51.902;7.626;2022-07-03T03:02:58;3.92;;;3.58;;
26774;SDS011;14362;51.902;7.626;2022-07-03T03:07:07;10.35;;;3.78;;
26774;SDS011;14362;51.902;7.626;2022-07-03T03:11:14;7.03;;;4.05;;
26774;SDS011;14362;51.902;7.626;2022-07-03T03:15:24;5.43;;;3.65;;
26774;SDS011;14362;51.902;7.626;2022-07-03T03:19:30;7.22;;;3.72;;
26774;SDS011;14362;51.902;7.626;2022-07-03T03:23:44;5.18;;;4.03;;
26774;SDS011;14362;51.902;7.626;2022-07-03T03:27:48;5.20;;;4.70;;
26774;SDS011;14362;51.902;7.626;2022-07-03T03:31:49;4.38;;;3.63;;
26774;SDS011;14362;51.902;7.626;2022-07-03T03:35:51;4.63;;;3.60;;
26774;SDS011;14362;51.902;7.626;2022-07-03T03:39:54;7.07;;;3.78;;
26774;SDS011;14362;51.902;7.626;2022-07-03T03:43:55;3.67;;;3.25;;
26774;SDS011;14362;51.902;7.626;2022-07-03T03:47:57;5.38;;;3.75;;
26774;SDS011;14362;51.902;7.626;2022-07-03T03:51:58;4.28;;;3.85;;
26774;SDS011;14362;51.902;7.626;2022-07-03T03:56:02;4.50;;;4.13;;
26774;SDS011;14362;51.902;7.626;2022-07-03T04:00:05;4.00;;;3.60;;
26774;SDS011;14362;51.902;7.626;2022-07-03T04:04:07;4.55;;;3.95;;
26774;SDS011;14362;51.902;7.626;2022-07-03T04:08:09;5.45;;;3.67;;
26774;SDS011;14362;51.902;7.626;2022-07-03T04:12:12;4.15;;;3.70;;
26774;SDS011;14362;51.902;7.626;2022-07-03T04:16:13;5.82;;;3.72;;
26774;SDS011;14362;51.902;7.626;2022-07-03T04:20:14;4.03;;;3.35;;
26774;SDS011;14362;51.902;7.626;2022-07-03T04:24:16;4.15;;;3.50;;
26774;SDS011;14362;51.902;7.626;2022-07-03T04:28:19;6.07;;;4.03;;
26774;SDS011;14362;51.902;7.626;2022-07-03T04:32:20;4.22;;;3.83;;
26774;SDS011;14362;51.902;7.626;2022-07-03T04:36:22;4.85;;;3.67;;
26774;SDS011;14362;51.902;7.626;2022-07-03T04:40:23;6.22;;;3.85;;
26774;SDS011;14362;51.902;7.626;2022-07-03T04:44:26;4.30;;;3.40;;
26774;SDS011;14362;51.902;7.626;2022-07-03T04:48:27;6.32;;;4.10;;
26774;SDS011;14362;51.902;7.626;2022-07-03T04:52:29;4.43;;;4.03;;
26774;SDS011;14362;51.902;7.626;2022-07-03T04:56:31;3.97;;;3.63;;
26774;SDS011;14362;51.902;7.626;2022-07-03T05:00:33;5.93;;;4.05;;
26774;SDS011;14362;51.902;7.626;2022-07-03T05:04:35;4.57;;;3.92;;
26774;SDS011;14362;51.902;7.626;2022-07-03T05:08:36;7.10;;;3.83;;
26774;SDS011;14362;51.902;7.626;2022-07-03T05:12:38;6.20;;;3.40;;
26774;SDS011;14362;51.902;7.626;2022-07-03T05:16:41;4.40;;;4.00;;
26774;SDS011;14362;51.902;7.626;2022-07-03T05:20:42;6.88;;;3.50;;
26774;SDS011;14362;51.902;7.626;2022-07-03T05:24:44;4.53;;;3.67;;
26774;SDS011;14362;51.902;7.626;2022-07-03T05:28:45;6.53;;;3.65;;
26774;SDS011;14362;51.902;7.626;2022-07-03T05:32:48;6.55;;;3.08;;
26774;SDS011;14362;51.902;7.626;2022-07-03T05:36:50;6.40;;;3.45;;
26774;SDS011;14362;51.902;7.626;2022-07-03T05:40:51;3.58;;;2.63;;
26774;SDS011;14362;51.902;7.626;2022-07-03T05:44:53;5.70;;;3.22;;
26774;SDS011;14362;51.902;7.626;2022-07-03T05:48:56;4.82;;;3.20;;
26774;SDS011;14362;51.902;7.626;2022-07-03T05:52:57;3.88;;;2.90;;
26774;SDS011;14362;51.902;7.626;2022-07-03T05:56:58;5.95;;;3.10;;
26774;SDS011;14362;51.902;7.626;2022-07-03T06:01:00;5.45;;;2.83;;
26774;SDS011;14362;51.902;7.626;2022-07-03T06:05:03;3.20;;;2.80;;
26774;SDS011;14362;51.902;7.626;2022-07-03T06:09:05;4.40;;;2.60;;
26774;SDS011;14362;51.902;7.626;2022-07-03T06:13:06;3.00;;;2.40;;
26774;SDS011;14362;51.902;7.626;2022-07-03T06:17:08;2.53;;;2.33;;
26774;SDS011;14362;51.902;7.626;2022-07-03T06:21:11;8.25;;;2.63;;
26774;SDS011;14362;51.902;7.626;2022-07-03T06:25:12;4.43;;;2.78;;
26774;SDS011;14362;51.902;7.626;2022-07-03T06:29:14;2.70;;;2.50;;
26774;SDS011;14362;51.902;7.626;2022-07-03T06:33:15;3.95;;;2.80;;
26774;SDS011;14362;51.902;7.626;2022-07-03T06:37:19;3.38;;;2.50;;
26774;SDS011;14362;51.902;7.626;2022-07-03T06:41:20;3.33;;;2.72;;
26774;SDS011;14362;51.902;7.626;2022-07-03T06:45:22;4.80;;;2.38;;
26774;SDS011;14362;51.902;7.626;2022-07-03T06:49:24;3.80;;;3.38;;
26774;SDS011;14362;51.902;7.626;2022-07-03T06:53:27;11.80;;;3.35;;
26774;SDS011;14362;51.902;7.626;2022-07-03T06:57:28;4.93;;;2.80;;
26774;SDS011;14362;51.902;7.626;2022-07-03T07:01:30;5.32;;;3.85;;
26774;SDS011;14362;51.902;7.626;2022-07-03T07:05:31;4.55;;;2.20;;
26774;SDS011;14362;51.902;7.626;2022-07-03T07:09:34;2.88;;;2.58;;
26774;SDS011;14362;51.902;7.626;2022-07-03T07:13:35;5.10;;;2.78;;
26774;SDS011;14362;51.902;7.626;2022-07-03T07:17:37;4.38;;;2.75;;
26774;SDS011;14362;51.902;7.626;2022-07-03T07:21:38;4.85;;;2.47;;
26774;SDS011;14362;51.902;7.626;2022-07-03T07:25:41;12.60;;;2.47;;
26774;SDS011;14362;51.902;7.626;2022-07-03T07:29:43;3.42;;;2.35;;
26774;SDS011;14362;51.902;7.626;2022-07-03T07:33:44;3.53;;;2.10;;
26774;SDS011;14362;51.902;7.626;2022-07-03T07:37:46;11.45;;;2.67;;
26774;SDS011;14362;51.902;7.626;2022-07-03T07:41:49;3.35;;;2.15;;
26774;SDS011;14362;51.902;7.626;2022-07-03T07:45:51;4.57;;;2.58;;
26774;SDS011;14362;51.902;7.626;2022-07-03T07:49:52;4.07;;;2.10;;
26774;SDS011;14362;51.902;7.626;2022-07-03T07:53:54;4.40;;;2.08;;
26774;SDS011;14362;51.902;7.626;2022-07-03T07:57:58;4.82;;;2.30;;
26774;SDS011;14362;51.902;7.626;2022-07-03T08:02:00;3.53;;;2.05;;
26774;SDS011;14362;51.902;7.626;2022-07-03T08:06:19;2.83;;;2.08;;
26774;SDS011;14362;51.902;7.626;2022-07-03T08:10:20;4.63;;;1.90;;
26774;SDS011;14362;51.902;7.626;2022-07-03T08:14:23;4.22;;;2.08;;
26774;SDS011;14362;51.902;7.626;2022-07-03T08:18:24;3.05;;;1.90;;
26774;SDS011;14362;51.902;7.626;2022-07-03T08:22:26;3.22;;;1.75;;
26774;SDS011;14362;51.902;7.626;2022-07-03T08:26:27;4.45;;;1.80;;
26774;SDS011;14362;51.902;7.626;2022-07-03T08:30:31;4.25;;;2.10;;
26774;SDS011;14362;51.902;7.626;2022-07-03T08:34:32;4.18;;;1.70;;
26774;SDS011;14362;51.902;7.626;2022-07-03T08:38:34;3.00;;;1.95;;
26774;SDS011;14362;51.902;7.626;2022-07-03T08:42:36;4.53;;;1.73;;
26774;SDS011;14362;51.902;7.626;2022-07-03T08:46:40;4.03;;;1.67;;
26774;SDS011;14362;51.902;7.626;2022-07-03T08:50:46;4.32;;;2.25;;
26774;SDS011;14362;51.902;7.626;2022-07-03T08:54:48;4.03;;;1.55;;
26774;SDS011;14362;51.902;7.626;2022-07-03T08:58:50;2.70;;;1.90;;
26774;SDS011;14362;51.902;7.626;2022-07-03T09:02:53;5.85;;;2.25;;
26774;SDS011;14362;51.902;7.626;2022-07-03T09:06:57;2.22;;;2.00;;
26774;SDS011;14362;51.902;7.626;2022-07-03T09:11:00;3.38;;;1.65;;
26774;SDS011;14362;51.902;7.626;2022-07-03T09:15:03;3.72;;;2.20;;
26774;SDS011;14362;51.902;7.626;2022-07-03T09:19:07;3.45;;;2.85;;
26774;SDS011;14362;51.902;7.626;2022-07-03T09:23:09;5.18;;;1.67;;
26774;SDS011;14362;51.902;7.626;2022-07-03T09:27:19;9.32;;;2.55;;
26774;SDS011;14362;51.902;7.626;2022-07-03T09:31:21;4.97;;;2.17;;
26774;SDS011;14362;51.902;7.626;2022-07-03T09:35:26;4.68;;;3.00;;
26774;SDS011;14362;51.902;7.626;2022-07-03T09:39:28;4.80;;;2.25;;
26774;SDS011;14362;51.902;7.626;2022-07-03T09:43:31;5.80;;;1.83;;
26774;SDS011;14362;51.902;7.626;2022-07-03T09:47:33;3.80;;;1.80;;
26774;SDS011;14362;51.902;7.626;2022-07-03T09:51:37;4.13;;;1.70;;
26774;SDS011;14362;51.902;7.626;2022-07-03T09:55:38;2.55;;;1.40;;
26774;SDS011;14362;51.902;7.626;2022-07-03T09:59:40;2.65;;;1.55;;
26774;SDS011;14362;51.902;7.626;2022-07-03T10:03:41;3.08;;;1.50;;
26774;SDS011;14362;51.902;7.626;2022-07-03T10:07:50;2.05;;;1.63;;
26774;SDS011;14362;51.902;7.626;2022-07-03T10:11:53;3.65;;;1.55;;
26774;SDS011;14362;51.902;7.626;2022-07-03T10:15:56;1.90;;;1.60;;
26774;SDS011;14362;51.902;7.626;2022-07-03T10:19:58;3.17;;;1.77;;
26774;SDS011;14362;51.902;7.626;2022-07-03T10:24:02;6.25;;;1.80;;
26774;SDS011;14362;51.902;7.626;2022-07-03T10:28:04;3.20;;;1.77;;
26774;SDS011;14362;51.902;7.626;2022-07-03T10:32:06;2.28;;;1.45;;
26774;SDS011;14362;51.902;7.626;2022-07-03T10:36:09;3.73;;;1.50;;
26774;SDS011;14362;51.902;7.626;2022-07-03T10:40:16;5.20;;;1.80;;
26774;SDS011;14362;51.902;7.626;2022-07-03T10:44:52;4.00;;;1.95;;
26774;SDS011;14362;51.902;7.626;2022-07-03T10:49:03;3.42;;;1.92;;
26774;SDS011;14362;51.902;7.626;2022-07-03T10:53:22;5.05;;;3.17;;
26774;SDS011;14362;51.902;7.626;2022-07-03T10:57:25;2.65;;;1.55;;
26774;SDS011;14362;51.902;7.626;2022-07-03T11:01:27;5.13;;;1.65;;
26774;SDS011;14362;51.902;7.626;2022-07-03T11:05:36;5.32;;;1.98;;
26774;SDS011;14362;51.902;7.626;2022-07-03T11:09:38;1.85;;;1.40;;
26774;SDS011;14362;51.902;7.626;2022-07-03T11:22:18;2.13;;;1.75;;
26774;SDS011;14362;51.902;7.626;2022-07-03T11:26:25;3.90;;;1.70;;
26774;SDS011;14362;51.902;7.626;2022-07-03T11:30:27;3.10;;;1.70;;
26774;SDS011;14362;51.902;7.626;2022-07-03T11:34:30;2.60;;;1.88;;
26774;SDS011;14362;51.902;7.626;2022-07-03T11:38:43;4.80;;;1.45;;
26774;SDS011;14362;51.902;7.626;2022-07-03T11:42:46;4.30;;;2.75;;
26774;SDS011;14362;51.902;7.626;2022-07-03T11:46:48;3.55;;;1.50;;
26774;SDS011;14362;51.902;7.626;2022-07-03T11:50:58;3.97;;;1.60;;
26774;SDS011;14362;51.902;7.626;2022-07-03T11:55:00;2.22;;;1.23;;
26774;SDS011;14362;51.902;7.626;2022-07-03T11:59:03;3.13;;;1.50;;
26774;SDS011;14362;51.902;7.626;2022-07-03T12:03:06;2.83;;;1.65;;
26774;SDS011;14362;51.902;7.626;2022-07-03T12:07:09;3.22;;;1.98;;
26774;SDS011;14362;51.902;7.626;2022-07-03T12:11:11;2.80;;;1.47;;
26774;SDS011;14362;51.902;7.626;2022-07-03T12:15:13;2.70;;;1.50;;
26774;SDS011;14362;51.902;7.626;2022-07-03T12:19:15;2.42;;;1.30;;
26774;SDS011;14362;51.902;7.626;2022-07-03T12:23:18;4.82;;;1.40;;
26774;SDS011;14362;51.902;7.626;2022-07-03T12:27:19;1.55;;;1.33;;
26774;SDS011;14362;51.902;7.626;2022-07-03T12:31:21;2.80;;;1.40;;
26774;SDS011;14362;51.902;7.626;2022-07-03T12:35:23;2.65;;;1.60;;
26774;SDS011;14362;51.902;7.626;2022-07-03T12:43:46;2.67;;;1.10;;
26774;SDS011;14362;51.902;7.626;2022-07-03T12:47:57;2.17;;;1.52;;
26774;SDS011;14362;51.902;7.626;2022-07-03T12:51:59;4.25;;;1.25;;
26774;SDS011;14362;51.902;7.626;2022-07-03T12:56:04;2.65;;;1.42;;
26774;SDS011;14362;51.902;7.626;2022-07-03T13:00:07;3.65;;;1.38;;
26774;SDS011;14362;51.902;7.626;2022-07-03T13:04:10;2.83;;;1.30;;
26774;SDS011;14362;51.902;7.626;2022-07-03T13:08:15;3.78;;;1.45;;
26774;SDS011;14362;51.902;7.626;2022-07-03T13:12:21;1.95;;;1.30;;
26774;SDS011;14362;51.902;7.626;2022-07-03T13:16:23;3.42;;;1.10;;
26774;SDS011;14362;51.902;7.626;2022-07-03T13:20:26;3.95;;;1.10;;
26774;SDS011;14362;51.902;7.626;2022-07-03T13:24:28;1.77;;;1.00;;
26774;SDS011;14362;51.902;7.626;2022-07-03T13:28:31;3.30;;;1.20;;
26774;SDS011;14362;51.902;7.626;2022-07-03T13:32:33;3.80;;;1.13;;
26774;SDS011;14362;51.902;7.626;2022-07-03T13:36:34;4.28;;;1.30;;
26774;SDS011;14362;51.902;7.626;2022-07-03T13:40:36;2.08;;;1.02;;
26774;SDS011;14362;51.902;7.626;2022-07-03T13:44:40;2.60;;;1.48;;
26774;SDS011;14362;51.902;7.626;2022-07-03T13:48:42;2.20;;;1.00;;
26774;SDS011;14362;51.902;7.626;2022-07-03T13:52:44;2.17;;;0.93;;
26774;SDS011;14362;51.902;7.626;2022-07-03T13:56:45;1.77;;;0.90;;
26774;SDS011;14362;51.902;7.626;2022-07-03T14:00:48;2.20;;;1.05;;
26774;SDS011;14362;51.902;7.626;2022-07-03T14:04:50;1.67;;;1.13;;
26774;SDS011;14362;51.902;7.626;2022-07-03T14:08:51;3.45;;;1.00;;
26774;SDS011;14362;51.902;7.626;2022-07-03T14:12:53;3.42;;;1.10;;
26774;SDS011;14362;51.902;7.626;2022-07-03T14:16:55;2.67;;;0.98;;
26774;SDS011;14362;51.902;7.626;2022-07-03T14:20:57;2.53;;;1.15;;
26774;SDS011;14362;51.902;7.626;2022-07-03T14:24:58;1.42;;;0.80;;
26774;SDS011;14362;51.902;7.626;2022-07-03T14:29:00;1.00;;;0.77;;
26774;SDS011;14362;51.902;7.626;2022-07-03T14:33:21;1.52;;;0.80;;
26774;SDS011;14362;51.902;7.626;2022-07-03T14:37:22;1.35;;;0.90;;
26774;SDS011;14362;51.902;7.626;2022-07-03T14:41:24;1.40;;;1.00;;
26774;SDS011;14362;51.902;7.626;2022-07-03T14:45:25;1.95;;;1.00;;
26774;SDS011;14362;51.902;7.626;2022-07-03T14:49:28;1.90;;;0.70;;
26774;SDS011;14362;51.902;7.626;2022-07-03T14:53:29;3.58;;;1.20;;
26774;SDS011;14362;51.902;7.626;2022-07-03T14:57:32;1.67;;;0.90;;
26774;SDS011;14362;51.902;7.626;2022-07-03T15:01:41;1.73;;;0.90;;
26774;SDS011;14362;51.902;7.626;2022-07-03T15:05:49;1.17;;;0.95;;
26774;SDS011;14362;51.902;7.626;2022-07-03T15:09:54;2.08;;;0.82;;
26774;SDS011;14362;51.902;7.626;2022-07-03T15:14:03;1.67;;;0.70;;
26774;SDS011;14362;51.902;7.626;2022-07-03T15:18:06;1.13;;;0.90;;
26774;SDS011;14362;51.902;7.626;2022-07-03T15:22:10;2.25;;;0.82;;
26774;SDS011;14362;51.902;7.626;2022-07-03T15:26:14;2.05;;;1.20;;
26774;SDS011;14362;51.902;7.626;2022-07-03T15:30:16;1.55;;;1.00;;
26774;SDS011;14362;51.902;7.626;2022-07-03T15:34:18;1.83;;;0.80;;
26774;SDS011;14362;51.902;7.626;2022-07-03T15:38:21;2.75;;;1.00;;
26774;SDS011;14362;51.902;7.626;2022-07-03T15:42:29;1.27;;;0.93;;
26774;SDS011;14362;51.902;7.626;2022-07-03T15:46:53;1.48;;;0.95;;
26774;SDS011;14362;51.902;7.626;2022-07-03T15:51:03;3.83;;;1.55;;
26774;SDS011;14362;51.902;7.626;2022-07-03T15:55:11;1.00;;;0.90;;
26774;SDS011;14362;51.902;7.626;2022-07-03T15:59:13;2.22;;;0.90;;
26774;SDS011;14362;51.902;7.626;2022-07-03T16:03:20;1.80;;;0.80;;
26774;SDS011;14362;51.902;7.626;2022-07-03T16:07:27;4.40;;;1.30;;
26774;SDS011;14362;51.902;7.626;2022-07-03T16:11:31;3.55;;;1.10;;
26774;SDS011;14362;51.902;7.626;2022-07-03T16:15:35;1.42;;;1.00;;
26774;SDS011;14362;51.902;7.626;2022-07-03T16:19:38;1.02;;;0.70;;
26774;SDS011;14362;51.902;7.626;2022-07-03T16:23:42;4.20;;;1.08;;
26774;SDS011;14362;51.902;7.626;2022-07-03T16:27:46;1.38;;;0.70;;
26774;SDS011;14362;51.902;7.626;2022-07-03T16:31:48;4.00;;;1.00;;
26774;SDS011;14362;51.902;7.626;2022-07-03T16:35:52;1.58;;;0.98;;
26774;SDS011;14362;51.902;7.626;2022-07-03T16:44:03;1.15;;;0.90;;
26774;SDS011;14362;51.902;7.626;2022-07-03T16:48:08;3.20;;;1.17;;
26774;SDS011;14362;51.902;7.626;2022-07-03T16:52:11;1.02;;;0.80;;
26774;SDS011;14362;51.902;7.626;2022-07-03T16:56:13;1.42;;;1.20;;
26774;SDS011;14362;51.902;7.626;2022-07-03T17:00:16;1.33;;;1.00;;
26774;SDS011;14362;51.902;7.626;2022-07-03T17:04:19;2.55;;;0.90;;
26774;SDS011;14362;51.902;7.626;2022-07-03T17:08:22;2.13;;;0.90;;
26774;SDS011;14362;51.902;7.626;2022-07-03T17:12:23;1.90;;;1.02;;
26774;SDS011;14362;51.902;7.626;2022-07-03T17:16:27;1.63;;;1.17;;
26774;SDS011;14362;51.902;7.626;2022-07-03T17:20:30;2.78;;;1.27;;
26774;SDS011;14362;51.902;7.626;2022-07-03T17:24:35;3.70;;;1.58;;
26774;SDS011;14362;51.902;7.626;2022-07-03T17:28:39;2.88;;;1.10;;
26774;SDS011;14362;51.902;7.626;2022-07-03T17:32:48;2.45;;;1.00;;
26774;SDS011;14362;51.902;7.626;2022-07-03T17:36:51;2.33;;;0.90;;
26774;SDS011;14362;51.902;7.626;2022-07-03T17:40:53;4.07;;;1.55;;
26774;SDS011;14362;51.902;7.626;2022-07-03T17:44:55;2.47;;;0.90;;
26774;SDS011;14362;51.902;7.626;2022-07-03T17:48:58;3.97;;;1.10;;
26774;SDS011;14362;51.902;7.626;2022-07-03T17:53:01;2.00;;;1.00;;
26774;SDS011;14362;51.902;7.626;2022-07-03T17:57:04;2.25;;;1.10;;
26774;SDS011;14362;51.902;7.626;2022-07-03T18:01:21;1.80;;;0.88;;
26774;SDS011;14362;51.902;7.626;2022-07-03T18:05:23;1.70;;;0.90;;
26774;SDS011;14362;51.902;7.626;2022-07-03T18:09:26;0.70;;;0.70;;
26774;SDS011;14362;51.902;7.626;2022-07-03T18:13:30;2.85;;;1.10;;
26774;SDS011;14362;51.902;7.626;2022-07-03T18:17:35;1.50;;;1.00;;
26774;SDS011;14362;51.902;7.626;2022-07-03T18:21:45;1.63;;;1.08;;
26774;SDS011;14362;51.902;7.626;2022-07-03T18:25:49;2.05;;;1.10;;
26774;SDS011;14362;51.902;7.626;2022-07-03T18:29:51;3.15;;;1.13;;
26774;SDS011;14362;51.902;7.626;2022-07-03T18:33:54;1.33;;;1.00;;
26774;SDS011;14362;51.902;7.626;2022-07-03T18:37:57;6.40;;;1.15;;
26774;SDS011;14362;51.902;7.626;2022-07-03T18:41:59;2.42;;;1.30;;
26774;SDS011;14362;51.902;7.626;2022-07-03T18:46:00;6.13;;;1.23;;
26774;SDS011;14362;51.902;7.626;2022-07-03T18:50:03;1.23;;;1.13;;
26774;SDS011;14362;51.902;7.626;2022-07-03T18:54:07;1.10;;;1.00;;
26774;SDS011;14362;51.902;7.626;2022-07-03T18:58:19;2.53;;;0.90;;
26774;SDS011;14362;51.902;7.626;2022-07-03T19:02:29;2.43;;;1.50;;
26774;SDS011;14362;51.902;7.626;2022-07-03T19:06:37;2.95;;;1.42;;
26774;SDS011;14362;51.902;7.626;2022-07-03T19:10:43;5.63;;;1.50;;
26774;SDS011;14362;51.902;7.626;2022-07-03T19:14:50;3.50;;;1.40;;
26774;SDS011;14362;51.902;7.626;2022-07-03T19:18:59;1.33;;;1.10;;
26774;SDS011;14362;51.902;7.626;2022-07-03T19:23:01;6.45;;;1.60;;
26774;SDS011;14362;51.902;7.626;2022-07-03T19:27:04;2.20;;;1.70;;
26774;SDS011;14362;51.902;7.626;2022-07-03T19:31:06;2.35;;;1.42;;
26774;SDS011;14362;51.902;7.626;2022-07-03T19:35:09;6.82;;;1.80;;
26774;SDS011;14362;51.902;7.626;2022-07-03T19:39:11;4.13;;;1.85;;
26774;SDS011;14362;51.902;7.626;2022-07-03T19:43:14;2.92;;;1.35;;
26774;SDS011;14362;51.902;7.626;2022-07-03T19:47:15;2.30;;;1.30;;
26774;SDS011;14362;51.902;7.626;2022-07-03T19:51:17;2.78;;;1.33;;
26774;SDS011;14362;51.902;7.626;2022-07-03T19:55:19;2.92;;;1.55;;
26774;SDS011;14362;51.902;7.626;2022-07-03T19:59:22;2.92;;;1.40;;
26774;SDS011;14362;51.902;7.626;2022-07-03T20:03:23;1.88;;;1.20;;
26774;SDS011;14362;51.902;7.626;2022-07-03T20:07:25;2.22;;;1.48;;
26774;SDS011;14362;51.902;7.626;2022-07-03T20:11:27;3.10;;;1.40;;
26774;SDS011;14362;51.902;7.626;2022-07-03T20:15:30;1.90;;;1.45;;
26774;SDS011;14362;51.902;7.626;2022-07-03T20:19:32;2.83;;;1.58;;
26774;SDS011;14362;51.902;7.626;2022-07-03T20:23:34;2.42;;;1.40;;
26774;SDS011;14362;51.902;7.626;2022-07-03T20:27:56;3.08;;;1.40;;
26774;SDS011;14362;51.902;7.626;2022-07-03T20:31:59;2.97;;;1.30;;
26774;SDS011;14362;51.902;7.626;2022-07-03T20:36:00;2.30;;;1.30;;
26774;SDS011;14362;51.902;7.626;2022-07-03T20:40:02;2.33;;;1.33;;
26774;SDS011;14362;51.902;7.626;2022-07-03T20:44:04;2.63;;;1.40;;
26774;SDS011;14362;51.902;7.626;2022-07-03T20:48:08;3.30;;;1.42;;
26774;SDS011;14362;51.902;7.626;2022-07-03T20:52:09;3.50;;;1.58;;
26774;SDS011;14362;51.902;7.626;2022-07-03T20:56:11;3.08;;;1.63;;
26774;SDS011;14362;51.902;7.626;2022-07-03T21:00:12;2.45;;;1.30;;
26774;SDS011;14362;51.902;7.626;2022-07-03T21:04:16;2.13;;;1.60;;
26774;SDS011;14362;51.902;7.626;2022-07-03T21:08:18;2.50;;;1.58;;
26774;SDS011;14362;51.902;7.626;2022-07-03T21:12:25;2.35;;;1.40;;
26774;SDS011;14362;51.902;7.626;2022-07-03T21:16:27;2.35;;;1.75;;
26774;SDS011;14362;51.902;7.626;2022-07-03T21:20:31;3.88;;;2.03;;
26774;SDS011;14362;51.902;7.626;2022-07-03T21:24:33;3.63;;;1.73;;
26774;SDS011;14362;51.902;7.626;2022-07-03T21:28:34;4.15;;;1.80;;
26774;SDS011;14362;51.902;7.626;2022-07-03T21:32:36;2.67;;;1.83;;
26774;SDS011;14362;51.902;7.626;2022-07-03T21:36:39;3.63;;;1.90;;
26774;SDS011;14362;51.902;7.626;2022-07-03T21:40:40;2.95;;;1.80;;
26774;SDS011;14362;51.902;7.626;2022-07-03T21:44:42;1.70;;;1.50;;
26774;SDS011;14362;51.902;7.626;2022-07-03T21:48:43;4.18;;;1.70;;
26774;SDS011;14362;51.902;7.626;2022-07-03T21:52:46;2.17;;;1.73;;
26774;SDS011;14362;51.902;7.626;2022-07-03T21:56:48;2.63;;;1.90;;
26774;SDS011;14362;51.902;7.626;2022-07-03T22:00:49;3.95;;;2.50;;
26774;SDS011;14362;51.902;7.626;2022-07-03T22:04:51;3.85;;;2.25;;
26774;SDS011;14362;51.902;7.626;2022-07-03T22:08:54;4.18;;;2.35;;
26774;SDS011;14362;51.902;7.626;2022-07-03T22:12:55;4.55;;;2.42;;
26774;SDS011;14362;51.902;7.626;2022-07-03T22:16:57;2.65;;;2.45;;
26774;SDS011;14362;51.902;7.626;2022-07-03T22:20:59;3.63;;;2.42;;
26774;SDS011;14362;51.902;7.626;2022-07-03T22:25:02;3.17;;;2.40;;
26774;SDS011;14362;51.902;7.626;2022-07-03T22:29:04;2.72;;;2.53;;
26774;SDS011;14362;51.902;7.626;2022-07-03T22:33:06;2.85;;;2.40;;
26774;SDS011;14362;51.902;7.626;2022-07-03T22:37:07;3.75;;;2.75;;
26774;SDS011;14362;51.902;7.626;2022-07-03T22:41:10;2.55;;;2.35;;
26774;SDS011;14362;51.902;7.626;2022-07-03T22:45:12;3.58;;;2.60;;
26774;SDS011;14362;51.902;7.626;2022-07-03T22:49:13;3.83;;;2.67;;
26774;SDS011;14362;51.902;7.626;2022-07-03T22:53:15;2.92;;;2.53;;
26774;SDS011;14362;51.902;7.626;2022-07-03T22:57:18;5.28;;;3.10;;
26774;SDS011;14362;51.902;7.626;2022-07-03T23:01:20;3.65;;;2.78;;
26774;SDS011;14362;51.902;7.626;2022-07-03T23:05:21;6.10;;;2.78;;
26774;SDS011;14362;51.902;7.626;2022-07-03T23:09:24;4.97;;;2.85;;
26774;SDS011;14362;51.902;7.626;2022-07-03T23:13:27;4.85;;;2.67;;
26774;SDS011;14362;51.902;7.626;2022-07-03T23:17:28;3.67;;;2.72;;
26774;SDS011;14362;51.902;7.626;2022-07-03T23:21:30;3.88;;;2.92;;
26774;SDS011;14362;51.902;7.626;2022-07-03T23:25:31;3.22;;;2.92;;
26774;SDS011;14362;51.902;7.626;2022-07-03T23:29:34;5.20;;;3.33;;
26774;SDS011;14362;51.902;7.626;2022-07-03T23:33:36;3.78;;;3.20;;
26774;SDS011;14362;51.902;7.626;2022-07-03T23:37:37;3.95;;;3.55;;
26774;SDS011;14362;51.902;7.626;2022-07-03T23:41:39;4.10;;;3.38;;
26774;SDS011;14362;51.902;7.626;2022-07-03T23:45:42;4.82;;;3.47;;
26774;SDS011;14362;51.902;7.626;2022-07-03T23:49:43;4.60;;;3.35;;
26774;SDS011;14362;51.902;7.626;2022-07-03T23:54:02;3.55;;;3.25;;
26774;SDS011;14362;51.902;7.626;2022-07-03T23:58:04;7.45;;;4.00;;
